createdAt,value
2019-03-21T00:02:22.189Z,39.57
2019-03-21T00:04:55.260Z,45.57
2019-03-21T00:07:26.320Z,44.53
2019-03-21T00:10:48.942Z,45.07
2019-03-21T00:13:18.801Z,40.73
2019-03-21T00:15:48.668Z,41.60
2019-03-21T00:18:18.563Z,39.10
2019-03-21T00:20:48.402Z,39.53
2019-03-21T00:23:18.347Z,39.73
2019-03-21T00:25:48.208Z,42.47
2019-03-21T00:28:18.182Z,43.10
2019-03-21T00:30:48.019Z,47.07
2019-03-21T00:33:18.796Z,42.63
2019-03-21T00:35:48.625Z,40.90
2019-03-21T00:38:18.547Z,39.80
2019-03-21T00:40:48.398Z,40.60
2019-03-21T00:43:19.466Z,40.90
2019-03-21T00:45:49.473Z,42.63
2019-03-21T00:48:20.583Z,41.07
2019-03-21T00:50:50.441Z,43.53
2019-03-21T00:53:20.309Z,42.13
2019-03-21T00:55:50.905Z,38.73
2019-03-21T00:58:20.901Z,41.37
2019-03-21T01:00:53.199Z,36.87
2019-03-21T01:03:23.150Z,36.60
2019-03-21T01:05:53.067Z,37.00
2019-03-21T01:08:23.048Z,40.13
2019-03-21T01:10:53.099Z,46.20
2019-03-21T01:13:25.020Z,45.43
2019-03-21T01:15:54.888Z,45.03
2019-03-21T01:18:24.822Z,47.17
2019-03-21T01:20:54.683Z,45.43
2019-03-21T01:23:24.656Z,40.93
2019-03-21T01:25:55.692Z,45.63
2019-03-21T01:28:25.643Z,44.87
2019-03-21T01:30:55.560Z,49.07
2019-03-21T01:33:25.760Z,48.77
2019-03-21T01:35:55.682Z,44.03
2019-03-21T01:38:25.611Z,51.00
2019-03-21T01:40:55.492Z,50.63
2019-03-21T01:43:25.345Z,46.63
2019-03-21T01:45:55.194Z,49.90
2019-03-21T01:48:25.083Z,51.27
2019-03-21T01:50:55.010Z,48.70
2019-03-21T01:53:24.885Z,50.43
2019-03-21T01:55:54.812Z,54.67
2019-03-21T01:58:24.660Z,51.70
2019-03-21T02:00:55.704Z,56.23
2019-03-21T02:03:25.545Z,50.73
2019-03-21T02:05:55.478Z,54.57
2019-03-21T02:08:25.377Z,55.90
2019-03-21T02:10:55.239Z,48.20
2019-03-21T02:13:25.184Z,56.60
2019-03-21T02:15:55.044Z,55.63
2019-03-21T02:18:24.905Z,56.07
2019-03-21T02:20:54.888Z,58.73
2019-03-21T02:23:26.131Z,61.03
2019-03-21T02:25:55.972Z,58.03
2019-03-21T02:28:25.915Z,68.87
2019-03-21T02:30:55.856Z,61.53
2019-03-21T02:33:28.763Z,62.97
2019-03-21T02:35:58.630Z,66.47
2019-03-21T02:38:28.591Z,67.83
2019-03-21T02:40:59.450Z,59.00
2019-03-21T02:43:29.314Z,62.37
2019-03-21T02:45:59.150Z,63.33
2019-03-21T02:48:29.148Z,66.70
2019-03-21T02:50:59.062Z,65.57
2019-03-21T02:53:28.943Z,65.97
2019-03-21T02:55:58.783Z,70.63
2019-03-21T02:58:28.750Z,59.53
2019-03-21T03:00:58.724Z,67.23
2019-03-21T03:03:28.567Z,62.00
2019-03-21T03:05:58.485Z,65.87
2019-03-21T03:08:28.440Z,61.33
2019-03-21T03:10:58.341Z,67.10
2019-03-21T03:13:28.198Z,62.17
2019-03-21T03:15:58.117Z,58.10
2019-03-21T03:18:28.016Z,54.77
2019-03-21T03:20:57.948Z,65.13
2019-03-21T03:23:27.887Z,63.13
2019-03-21T03:25:57.848Z,56.23
2019-03-21T03:28:28.033Z,67.87
2019-03-21T03:30:58.227Z,62.93
2019-03-21T03:33:28.092Z,61.10
2019-03-21T03:35:57.950Z,60.67
2019-03-21T03:38:27.853Z,64.27
2019-03-21T03:41:00.359Z,66.07
2019-03-21T03:43:30.228Z,58.27
2019-03-21T03:46:00.098Z,63.20
2019-03-21T03:48:30.122Z,60.77
2019-03-21T03:51:00.053Z,66.87
2019-03-21T03:53:30.051Z,57.33
2019-03-21T03:56:00.006Z,58.30
2019-03-21T03:58:29.867Z,63.93
2019-03-21T04:01:00.066Z,58.90
2019-03-21T04:03:33.092Z,63.20
2019-03-21T04:06:05.094Z,57.60
2019-03-21T04:08:37.870Z,62.13
2019-03-21T04:11:10.365Z,58.70
2019-03-21T04:13:40.861Z,63.20
2019-03-21T04:16:10.676Z,60.47
2019-03-21T04:18:40.587Z,52.20
2019-03-21T04:21:10.752Z,56.17
2019-03-21T04:23:40.602Z,55.00
2019-03-21T04:26:21.429Z,55.47
2019-03-21T04:28:51.462Z,55.57
2019-03-21T04:31:21.325Z,55.20
2019-03-21T04:33:52.335Z,57.97
2019-03-21T04:36:22.404Z,53.80
2019-03-21T04:38:52.337Z,52.60
2019-03-21T04:41:22.243Z,60.50
2019-03-21T04:43:52.111Z,55.27
2019-03-21T04:46:21.971Z,52.43
2019-03-21T04:48:51.899Z,49.13
2019-03-21T04:51:22.361Z,57.03
2019-03-21T04:53:53.518Z,48.90
2019-03-21T04:56:23.870Z,50.77
2019-03-21T04:58:53.823Z,47.10
2019-03-21T05:01:23.811Z,49.13
2019-03-21T05:03:53.774Z,50.90
2019-03-21T05:06:23.683Z,46.70
2019-03-21T05:08:53.558Z,50.47
2019-03-21T05:11:23.401Z,50.27
2019-03-21T05:13:54.344Z,50.23
2019-03-21T05:16:24.300Z,50.33
2019-03-21T05:18:55.164Z,47.67
2019-03-21T05:21:25.150Z,45.47
2019-03-21T05:23:55.024Z,47.67
2019-03-21T05:26:24.913Z,47.73
2019-03-21T05:28:54.841Z,48.57
2019-03-21T05:31:28.150Z,48.53
2019-03-21T05:33:58.084Z,48.30
2019-03-21T05:36:27.949Z,49.47
2019-03-21T05:38:57.808Z,47.57
2019-03-21T05:41:27.682Z,45.80
2019-03-21T05:44:01.231Z,50.27
2019-03-21T05:46:31.423Z,47.13
2019-03-21T05:49:01.333Z,43.53
2019-03-21T05:51:31.254Z,48.10
2019-03-21T05:54:01.132Z,49.40
2019-03-21T05:56:31.143Z,45.23
2019-03-21T05:59:01.106Z,42.97
2019-03-21T06:01:31.071Z,46.20
2019-03-21T06:04:01.261Z,50.20
2019-03-21T06:06:42.335Z,45.97
2019-03-21T06:09:13.987Z,46.47
2019-03-21T06:11:46.443Z,43.80
2019-03-21T06:14:16.557Z,43.33
2019-03-21T06:16:46.460Z,49.00
2019-03-21T06:19:43.811Z,45.27
2019-03-21T06:23:00.690Z,48.40
2019-03-21T06:26:20.736Z,55.50
2019-03-21T06:28:50.620Z,52.47
2019-03-21T06:31:20.503Z,51.50
2019-03-21T06:33:50.422Z,50.80
2019-03-21T06:36:20.444Z,47.27
2019-03-21T06:38:50.315Z,46.50
2019-03-21T06:41:20.167Z,52.40
2019-03-21T06:43:50.042Z,52.90
2019-03-21T06:46:19.975Z,53.73
2019-03-21T06:48:49.971Z,54.57
2019-03-21T06:51:19.944Z,54.00
2019-03-21T06:53:50.006Z,51.00
2019-03-21T06:56:19.930Z,55.83
2019-03-21T06:58:51.651Z,51.13
2019-03-21T07:01:21.468Z,49.33
2019-03-21T07:03:51.450Z,52.33
2019-03-21T07:06:21.302Z,50.03
2019-03-21T07:08:51.302Z,50.87
2019-03-21T07:11:21.279Z,51.07
2019-03-21T07:13:51.334Z,52.83
2019-03-21T07:16:21.280Z,48.47
2019-03-21T07:18:51.305Z,50.03
2019-03-21T07:21:21.299Z,49.63
2019-03-21T07:23:51.345Z,47.93
2019-03-21T07:26:21.288Z,48.40
2019-03-21T07:28:51.289Z,46.13
2019-03-21T07:31:21.374Z,46.43
2019-03-21T07:33:52.792Z,47.13
2019-03-21T07:36:22.750Z,46.37
2019-03-21T07:38:52.642Z,46.63
2019-03-21T07:41:22.552Z,47.77
2019-03-21T07:43:52.643Z,41.07
2019-03-21T07:46:22.546Z,49.87
2019-03-21T07:48:52.463Z,44.30
2019-03-21T07:51:22.477Z,48.87
2019-03-21T07:53:52.457Z,43.37
2019-03-21T07:56:24.886Z,42.10
2019-03-21T07:58:54.063Z,44.13
2019-03-21T08:01:24.017Z,41.33
2019-03-21T08:03:53.995Z,41.50
2019-03-21T08:06:25.223Z,41.97
2019-03-21T08:08:55.166Z,47.37
2019-03-21T08:11:25.121Z,42.40
2019-03-21T08:13:55.085Z,41.33
2019-03-21T08:16:25.077Z,43.70
2019-03-21T08:18:55.008Z,38.33
2019-03-21T08:21:24.923Z,41.83
2019-03-21T08:23:54.804Z,40.47
2019-03-21T08:26:24.829Z,36.57
2019-03-21T08:28:54.769Z,38.67
2019-03-21T08:31:24.763Z,40.03
2019-03-21T08:33:54.646Z,38.47
2019-03-21T08:36:24.631Z,39.00
2019-03-21T08:38:54.502Z,35.43
2019-03-21T08:41:24.416Z,34.63
2019-03-21T08:43:54.262Z,32.47
2019-03-21T08:46:24.179Z,31.67
2019-03-21T08:48:54.036Z,32.43
2019-03-21T08:51:23.902Z,31.90
2019-03-21T08:53:53.820Z,29.30
2019-03-21T08:56:23.812Z,48.13
2019-03-21T08:58:53.726Z,43.40
2019-03-21T09:01:23.675Z,42.83
2019-03-21T09:03:53.665Z,38.93
2019-03-21T09:06:23.675Z,49.53
2019-03-21T09:08:53.594Z,34.10
2019-03-21T09:11:23.526Z,28.37
2019-03-21T09:13:54.664Z,27.00
2019-03-21T09:16:24.698Z,29.30
2019-03-21T09:18:54.736Z,31.13
2019-03-21T09:21:24.770Z,31.63
2019-03-21T09:23:54.916Z,28.10
2019-03-21T09:26:24.807Z,27.87
2019-03-21T09:28:54.807Z,25.73
2019-03-21T09:31:24.796Z,25.93
2019-03-21T09:33:54.748Z,24.57
2019-03-21T09:36:25.342Z,27.53
2019-03-21T09:38:55.357Z,26.97
2019-03-21T09:41:25.290Z,27.37
2019-03-21T09:43:55.230Z,27.30
2019-03-21T09:46:25.139Z,24.63
2019-03-21T09:48:55.093Z,27.10
2019-03-21T09:51:30.852Z,31.50
2019-03-21T09:54:08.911Z,27.93
2019-03-21T09:56:29.620Z,27.90
2019-03-21T09:58:59.528Z,26.80
2019-03-21T10:01:29.514Z,27.67
2019-03-21T10:03:59.482Z,26.83
2019-03-21T10:06:29.507Z,28.10
2019-03-21T10:08:59.469Z,27.43
2019-03-21T10:11:29.458Z,23.97
2019-03-21T10:13:59.382Z,29.33
2019-03-21T10:16:29.297Z,28.23
2019-03-21T10:18:59.216Z,27.40
2019-03-21T10:21:29.137Z,30.70
2019-03-21T10:23:59.018Z,28.73
2019-03-21T10:26:29.071Z,26.60
2019-03-21T10:28:59.025Z,25.37
2019-03-21T10:31:28.924Z,25.63
2019-03-21T10:33:58.928Z,26.80
2019-03-21T10:36:30.085Z,32.40
2019-03-21T10:39:00.065Z,27.70
2019-03-21T10:41:29.912Z,25.10
2019-03-21T10:43:59.904Z,22.23
2019-03-21T10:46:29.743Z,22.90
2019-03-21T10:48:59.773Z,20.83
2019-03-21T10:51:29.710Z,22.47
2019-03-21T10:53:59.677Z,22.30
2019-03-21T10:56:29.549Z,20.87
2019-03-21T10:58:59.406Z,24.07
2019-03-21T11:01:29.363Z,25.13
2019-03-21T11:03:59.342Z,21.60
2019-03-21T11:06:29.276Z,21.87
2019-03-21T11:08:59.370Z,22.43
2019-03-21T11:11:29.296Z,23.03
2019-03-21T11:13:59.318Z,22.87
2019-03-21T11:16:31.405Z,24.90
2019-03-21T11:19:00.876Z,24.90
2019-03-21T11:21:30.854Z,23.10
2019-03-21T11:24:00.812Z,24.03
2019-03-21T11:26:30.787Z,19.83
2019-03-21T11:29:00.803Z,22.23
2019-03-21T11:31:30.754Z,21.40
2019-03-21T11:34:00.792Z,22.63
2019-03-21T11:36:38.196Z,25.37
2019-03-21T11:39:02.371Z,22.10
2019-03-21T11:41:32.357Z,23.63
2019-03-21T11:44:03.904Z,22.70
2019-03-21T11:46:33.840Z,25.93
2019-03-21T11:49:03.810Z,25.43
2019-03-21T11:51:34.857Z,23.40
2019-03-21T11:54:04.873Z,23.40
2019-03-21T11:56:34.859Z,24.93
2019-03-21T11:59:04.974Z,23.00
2019-03-21T12:01:34.998Z,23.70
2019-03-21T12:04:06.053Z,23.50
2019-03-21T12:06:36.089Z,24.90
2019-03-21T12:09:08.881Z,25.90
2019-03-21T12:11:38.738Z,23.03
2019-03-21T12:14:08.747Z,23.60
2019-03-21T12:16:38.636Z,23.50
2019-03-21T12:19:08.792Z,22.30
2019-03-21T12:21:38.850Z,23.77
2019-03-21T12:24:08.895Z,25.13
2019-03-21T12:26:38.891Z,25.30
2019-03-21T12:29:08.891Z,26.70
2019-03-21T12:31:38.842Z,26.30
2019-03-21T12:34:08.819Z,25.33
2019-03-21T12:36:38.764Z,25.63
2019-03-21T12:39:10.099Z,24.40
2019-03-21T12:41:40.132Z,24.57
2019-03-21T12:44:10.071Z,25.27
2019-03-21T12:46:41.530Z,26.17
2019-03-21T12:49:11.511Z,27.33
2019-03-21T12:51:41.527Z,28.30
2019-03-21T12:54:11.568Z,23.33
2019-03-21T12:56:41.601Z,26.00
2019-03-21T12:59:11.535Z,29.70
2019-03-21T13:01:41.479Z,24.83
2019-03-21T13:04:11.500Z,25.33
2019-03-21T13:06:41.502Z,28.20
2019-03-21T13:09:11.491Z,29.70
2019-03-21T13:11:41.359Z,29.20
2019-03-21T13:14:11.265Z,32.80
2019-03-21T13:16:41.172Z,29.60
2019-03-21T13:19:11.061Z,28.07
2019-03-21T13:21:41.016Z,26.20
2019-03-21T13:24:11.022Z,28.53
2019-03-21T13:26:41.009Z,26.57
2019-03-21T13:29:10.995Z,28.50
2019-03-21T13:31:40.895Z,26.60
2019-03-21T13:34:11.033Z,25.60
2019-03-21T13:36:40.990Z,29.43
2019-03-21T13:39:10.937Z,25.63
2019-03-21T13:41:40.896Z,25.70
2019-03-21T13:44:10.843Z,25.63
2019-03-21T13:46:40.737Z,26.57
2019-03-21T13:49:10.646Z,25.37
2019-03-21T13:51:40.592Z,24.93
2019-03-21T13:54:10.438Z,23.60
2019-03-21T13:56:40.472Z,23.50
2019-03-21T13:59:10.425Z,27.70
2019-03-21T14:01:40.298Z,25.07
2019-03-21T14:04:10.105Z,24.30
2019-03-21T14:06:41.860Z,23.80
2019-03-21T14:09:11.840Z,23.70
2019-03-21T14:11:41.774Z,24.50
2019-03-21T14:14:11.808Z,27.03
2019-03-21T14:16:41.671Z,23.73
2019-03-21T14:19:11.787Z,23.40
2019-03-21T14:21:41.732Z,24.63
2019-03-21T14:24:11.802Z,24.67
2019-03-21T14:26:41.802Z,25.10
2019-03-21T14:29:12.962Z,24.50
2019-03-21T14:31:43.157Z,23.07
2019-03-21T14:34:13.200Z,24.77
2019-03-21T14:36:43.270Z,26.10
2019-03-21T14:39:13.259Z,25.90
2019-03-21T14:41:43.264Z,24.53
2019-03-21T14:44:13.299Z,23.53
2019-03-21T14:46:43.153Z,22.30
2019-03-21T14:49:13.037Z,27.87
2019-03-21T14:51:42.901Z,25.33
2019-03-21T14:54:12.866Z,30.73
2019-03-21T14:56:42.865Z,31.23
2019-03-21T14:59:12.924Z,36.47
2019-03-21T15:01:42.886Z,25.23
2019-03-21T15:04:12.854Z,29.43
2019-03-21T15:06:42.698Z,30.60
2019-03-21T15:09:12.728Z,28.47
2019-03-21T15:11:42.771Z,24.90
2019-03-21T15:14:12.835Z,25.50
2019-03-21T15:16:42.809Z,25.87
2019-03-21T15:19:12.795Z,25.37
2019-03-21T15:21:42.823Z,23.67
2019-03-21T15:24:12.690Z,28.90
2019-03-21T15:26:42.675Z,29.27
2019-03-21T15:29:12.788Z,25.67
2019-03-21T15:31:42.865Z,27.27
2019-03-21T15:34:12.770Z,26.63
2019-03-21T15:36:42.817Z,26.83
2019-03-21T15:39:12.784Z,29.07
2019-03-21T15:41:42.772Z,28.80
2019-03-21T15:44:12.779Z,25.43
2019-03-21T15:46:42.798Z,30.23
2019-03-21T15:49:12.699Z,27.67
2019-03-21T15:51:42.607Z,29.07
2019-03-21T15:54:12.628Z,33.50
2019-03-21T15:56:42.483Z,28.13
2019-03-21T15:59:12.486Z,28.07
2019-03-21T16:01:42.367Z,30.97
2019-03-21T16:04:12.412Z,26.47
2019-03-21T16:06:42.407Z,28.10
2019-03-21T16:09:12.382Z,28.07
2019-03-21T16:11:42.309Z,27.77
2019-03-21T16:14:12.422Z,27.40
2019-03-21T16:16:42.295Z,28.50
2019-03-21T16:19:12.234Z,27.53
2019-03-21T16:21:42.213Z,29.50
2019-03-21T16:24:12.186Z,25.90
2019-03-21T16:26:42.180Z,30.80
2019-03-21T16:29:12.224Z,30.10
2019-03-21T16:31:42.210Z,28.97
2019-03-21T16:34:12.126Z,27.87
2019-03-21T16:36:42.089Z,29.47
2019-03-21T16:39:12.035Z,30.50
2019-03-21T16:41:42.021Z,29.80
2019-03-21T16:44:11.979Z,31.07
2019-03-21T16:46:41.952Z,33.03
2019-03-21T16:49:11.874Z,32.37
2019-03-21T16:51:41.825Z,30.47
2019-03-21T16:54:16.911Z,33.57
2019-03-21T16:56:43.341Z,32.90
2019-03-21T16:59:13.290Z,32.67
2019-03-21T17:01:43.305Z,31.53
2019-03-21T17:04:13.237Z,34.00
2019-03-21T17:06:43.193Z,34.87
2019-03-21T17:09:13.147Z,35.80
2019-03-21T17:11:43.088Z,34.47
2019-03-21T17:14:13.098Z,33.30
2019-03-21T17:16:43.044Z,33.70
2019-03-21T17:19:12.993Z,37.30
2019-03-21T17:21:43.143Z,34.20
2019-03-21T17:24:13.088Z,36.30
2019-03-21T17:26:43.047Z,37.03
2019-03-21T17:29:13.119Z,36.17
2019-03-21T17:31:42.977Z,37.90
2019-03-21T17:34:12.823Z,37.40
2019-03-21T17:36:42.754Z,33.13
2019-03-21T17:39:12.894Z,41.70
2019-03-21T17:41:43.392Z,41.67
2019-03-21T17:44:13.466Z,46.10
2019-03-21T17:46:43.392Z,41.83
2019-03-21T17:49:13.258Z,41.30
2019-03-21T17:51:43.180Z,40.77
2019-03-21T17:54:13.044Z,41.97
2019-03-21T17:56:42.971Z,41.00
2019-03-21T17:59:12.902Z,38.00
2019-03-21T18:01:42.958Z,40.93
2019-03-21T18:04:12.793Z,42.40
2019-03-21T18:06:43.467Z,43.93
2019-03-21T18:09:13.424Z,45.63
2019-03-21T18:11:43.382Z,42.33
2019-03-21T18:14:13.403Z,42.77
2019-03-21T18:16:43.417Z,44.27
2019-03-21T18:19:13.363Z,46.37
2019-03-21T18:21:43.336Z,47.50
2019-03-21T18:24:13.199Z,44.70
2019-03-21T18:26:43.014Z,46.40
2019-03-21T18:29:12.987Z,48.90
2019-03-21T18:31:42.927Z,50.63
2019-03-21T18:34:12.816Z,50.63
2019-03-21T18:36:42.736Z,47.83
2019-03-21T18:39:14.402Z,52.63
2019-03-21T18:41:44.448Z,52.20
2019-03-21T18:44:14.305Z,49.03
2019-03-21T18:46:44.271Z,50.67
2019-03-21T18:49:14.267Z,53.47
2019-03-21T18:51:44.147Z,52.03
2019-03-21T18:54:14.110Z,52.87
2019-03-21T18:56:44.005Z,51.57
2019-03-21T18:59:13.917Z,54.97
2019-03-21T19:01:43.793Z,50.17
2019-03-21T19:04:13.773Z,52.07
2019-03-21T19:06:43.802Z,57.87
2019-03-21T19:09:13.708Z,55.27
2019-03-21T19:11:43.690Z,57.67
2019-03-21T19:14:13.676Z,55.97
2019-03-21T19:16:43.589Z,52.40
2019-03-21T19:19:13.537Z,89.83
2019-03-21T19:21:43.401Z,136.20
2019-03-21T19:24:13.305Z,129.70
2019-03-21T19:26:43.146Z,75.63
2019-03-21T19:29:15.056Z,69.43
2019-03-21T19:31:44.622Z,69.97
2019-03-21T19:34:14.556Z,74.20
2019-03-21T19:36:44.420Z,102.27
2019-03-21T19:39:14.364Z,121.27
2019-03-21T19:41:44.333Z,97.87
2019-03-21T19:44:14.498Z,115.70
2019-03-21T19:46:44.428Z,112.30
2019-03-21T19:49:14.483Z,107.17
2019-03-21T19:51:44.297Z,107.97
2019-03-21T19:54:14.241Z,97.87
2019-03-21T19:56:44.093Z,80.33
2019-03-21T19:59:13.984Z,93.73
2019-03-21T20:01:43.946Z,85.47
2019-03-21T20:04:13.937Z,85.03
2019-03-21T20:06:43.852Z,89.70
2019-03-21T20:09:13.704Z,81.03
2019-03-21T20:11:43.548Z,81.13
2019-03-21T20:14:13.477Z,78.50
2019-03-21T20:16:43.305Z,73.23
2019-03-21T20:19:13.260Z,70.67
2019-03-21T20:21:47.779Z,75.43
2019-03-21T20:24:14.795Z,69.03
2019-03-21T20:26:44.715Z,63.37
2019-03-21T20:29:14.659Z,56.93
2019-03-21T20:31:44.645Z,63.10
2019-03-21T20:34:14.597Z,62.17
2019-03-21T20:36:44.553Z,61.23
2019-03-21T20:39:14.471Z,59.07
2019-03-21T20:41:44.408Z,65.97
2019-03-21T20:44:15.437Z,62.47
2019-03-21T20:46:45.444Z,67.87
2019-03-21T20:49:15.250Z,58.63
2019-03-21T20:51:45.174Z,58.63
2019-03-21T20:54:15.125Z,58.30
2019-03-21T20:56:44.986Z,58.80
2019-03-21T20:59:14.993Z,58.53
2019-03-21T21:01:44.904Z,55.87
2019-03-21T21:04:14.862Z,59.57
2019-03-21T21:06:44.851Z,59.40
2019-03-21T21:09:15.079Z,56.47
2019-03-21T21:11:45.086Z,55.67
2019-03-21T21:14:14.906Z,53.70
2019-03-21T21:16:44.830Z,55.43
2019-03-21T21:19:14.817Z,51.93
2019-03-21T21:21:44.723Z,48.80
2019-03-21T21:24:14.680Z,52.23
2019-03-21T21:26:44.658Z,50.70
2019-03-21T21:29:14.633Z,49.60
2019-03-21T21:31:44.612Z,48.07
2019-03-21T21:34:14.501Z,46.97
2019-03-21T21:36:44.362Z,55.93
2019-03-21T21:39:14.327Z,49.30
2019-03-21T21:41:44.173Z,45.37
2019-03-21T21:44:14.122Z,46.73
2019-03-21T21:46:45.507Z,51.77
2019-03-21T21:49:15.376Z,47.80
2019-03-21T21:51:45.766Z,52.57
2019-03-21T21:54:15.764Z,46.17
2019-03-21T21:56:45.708Z,50.93
2019-03-21T21:59:15.644Z,46.60
2019-03-21T22:01:45.628Z,50.60
2019-03-21T22:04:15.677Z,52.57
2019-03-21T22:06:45.637Z,52.70
2019-03-21T22:09:15.474Z,51.77
2019-03-21T22:11:45.394Z,49.90
2019-03-21T22:14:15.340Z,52.20
2019-03-21T22:16:45.209Z,49.53
2019-03-21T22:19:15.124Z,48.73
2019-03-21T22:21:45.016Z,48.27
2019-03-21T22:24:14.890Z,55.60
2019-03-21T22:26:44.712Z,52.13
2019-03-21T22:29:14.666Z,51.23
2019-03-21T22:31:44.683Z,54.00
2019-03-21T22:34:14.547Z,54.53
2019-03-21T22:36:49.304Z,53.13
2019-03-21T22:39:15.966Z,52.87
2019-03-21T22:41:45.816Z,56.07
2019-03-21T22:44:15.651Z,58.20
2019-03-21T22:46:45.492Z,55.70
2019-03-21T22:49:15.365Z,54.57
2019-03-21T22:51:45.290Z,56.63
2019-03-21T22:54:15.243Z,55.70
2019-03-21T22:56:45.062Z,59.07
2019-03-21T22:59:14.923Z,61.33
2019-03-21T23:01:44.893Z,65.17
2019-03-21T23:04:14.848Z,59.47
2019-03-21T23:06:44.837Z,66.43
2019-03-21T23:09:14.757Z,67.03
2019-03-21T23:11:44.683Z,60.17
2019-03-21T23:14:14.595Z,60.00
2019-03-21T23:16:44.583Z,62.43
2019-03-21T23:19:14.453Z,58.73
2019-03-21T23:21:44.342Z,61.10
2019-03-21T23:24:14.198Z,59.80
2019-03-21T23:26:52.465Z,70.03
2019-03-21T23:29:15.816Z,70.00
2019-03-21T23:31:45.789Z,66.70
2019-03-21T23:34:18.643Z,60.83
2019-03-21T23:36:48.530Z,66.00
2019-03-21T23:39:18.431Z,63.20
2019-03-21T23:41:48.443Z,63.60
2019-03-21T23:44:20.158Z,63.87
2019-03-21T23:46:50.102Z,60.87
2019-03-21T23:49:20.015Z,59.97
2019-03-21T23:51:49.833Z,67.30
2019-03-21T23:54:19.805Z,63.20
2019-03-21T23:56:49.749Z,58.53
2019-03-21T23:59:19.678Z,60.70
